RPA283 KBOS-KMVY
Flight info
| Callsign | RPA283 |
|---|---|
| Flight time | 0h 15m |
| Altitude | 12000 |
| Route | LOGAN4 DUNKK |
| Aircraft | E75L/M-SDE3GILORVW/S |
Departure
| Time | 2026-04-18 04:24 |
|---|---|
| Airport | Boston Logan International Airport (KBOS) |
Arrival
| Time | 2026-04-18 04:39 |
|---|---|
| Airport | Martha's Vineyard Airport (KMVY) |
| Time | Latitude | Longitude | Altitude | Speed | Heading |
|---|---|---|---|---|---|
| 2026-04-18 04:05 | 42.36377 | -71.02197 | 23 ft | 0 kts | 57° |
| 2026-04-18 04:14 | 42.36373 | -71.02204 | 23 ft | 2 kts | 57° |
| 2026-04-18 04:14 | 42.36362 | -71.02226 | 27 ft | 3 kts | 55° |
| 2026-04-18 04:14 | 42.36351 | -71.02248 | 24 ft | 3 kts | 56° |
| 2026-04-18 04:14 | 42.36341 | -71.02270 | 23 ft | 3 kts | 68° |
| 2026-04-18 04:15 | 42.36338 | -71.02296 | 27 ft | 3 kts | 99° |
| 2026-04-18 04:15 | 42.36343 | -71.02316 | 23 ft | 1 kts | 119° |
| 2026-04-18 04:15 | 42.36346 | -71.02322 | 23 ft | 0 kts | 119° |
| 2026-04-18 04:18 | 42.36345 | -71.02319 | 23 ft | 2 kts | 129° |
| 2026-04-18 04:18 | 42.36333 | -71.02312 | 27 ft | 2 kts | 185° |
| 2026-04-18 04:18 | 42.36293 | -71.02329 | 24 ft | 12 kts | 204° |
| 2026-04-18 04:19 | 42.36226 | -71.02345 | 23 ft | 13 kts | 182° |
| 2026-04-18 04:19 | 42.36197 | -71.02348 | 23 ft | 0 kts | 185° |
| 2026-04-18 04:19 | 42.36171 | -71.02351 | 23 ft | 11 kts | 182° |
| 2026-04-18 04:19 | 42.36102 | -71.02334 | 25 ft | 8 kts | 147° |
| 2026-04-18 04:20 | 42.36045 | -71.02278 | 23 ft | 12 kts | 129° |
| 2026-04-18 04:20 | 42.35990 | -71.02169 | 25 ft | 13 kts | 117° |
| 2026-04-18 04:20 | 42.35954 | -71.02075 | 23 ft | 13 kts | 120° |
| 2026-04-18 04:20 | 42.35916 | -71.01973 | 23 ft | 8 kts | 129° |
| 2026-04-18 04:21 | 42.35873 | -71.01892 | 23 ft | 13 kts | 121° |
| 2026-04-18 04:21 | 42.35843 | -71.01762 | 23 ft | 17 kts | 99° |
| 2026-04-18 04:21 | 42.35817 | -71.01594 | 23 ft | 14 kts | 103° |
| 2026-04-18 04:21 | 42.35781 | -71.01452 | 25 ft | 13 kts | 108° |
| 2026-04-18 04:22 | 42.35751 | -71.01345 | 25 ft | 9 kts | 112° |
| 2026-04-18 04:22 | 42.35704 | -71.01295 | 23 ft | 10 kts | 174° |
| 2026-04-18 04:22 | 42.35676 | -71.01299 | 23 ft | 0 kts | 195° |
| 2026-04-18 04:22 | 42.35673 | -71.01301 | 26 ft | 3 kts | 195° |
| 2026-04-18 04:23 | 42.35658 | -71.01306 | 23 ft | 3 kts | 192° |
| 2026-04-18 04:23 | 42.35580 | -71.01286 | 23 ft | 1 kts | 133° |
| 2026-04-18 04:23 | 42.35587 | -71.01226 | 23 ft | 22 kts | 77° |
| 2026-04-18 04:23 | 42.35710 | -71.00556 | 51 ft | 131 kts | 76° |
| 2026-04-18 04:24 | 42.35997 | -70.99094 | 895 ft | 180 kts | 74° |
| 2026-04-18 04:24 | 42.36347 | -70.97484 | 2720 ft | 173 kts | 73° |
| 2026-04-18 04:24 | 42.36692 | -70.95834 | 4484 ft | 161 kts | 75° |
| 2026-04-18 04:24 | 42.36873 | -70.94374 | 6267 ft | 174 kts | 81° |
| 2026-04-18 04:25 | 42.37049 | -70.92882 | 8075 ft | 137 kts | 77° |
| 2026-04-18 04:25 | 42.37178 | -70.91823 | 9896 ft | 104 kts | 78° |
| 2026-04-18 04:25 | 42.37331 | -70.90506 | 10183 ft | 166 kts | 79° |
| 2026-04-18 04:25 | 42.37489 | -70.88986 | 11419 ft | 159 kts | 81° |
| 2026-04-18 04:26 | 42.37337 | -70.87453 | 12381 ft | 185 kts | 107° |
| 2026-04-18 04:26 | 42.36722 | -70.85749 | 13091 ft | 214 kts | 114° |
| 2026-04-18 04:26 | 42.35840 | -70.84070 | 14202 ft | 219 kts | 126° |
| 2026-04-18 04:26 | 42.34980 | -70.82477 | 15513 ft | 202 kts | 116° |
| 2026-04-18 04:27 | 42.34137 | -70.80969 | 16646 ft | 206 kts | 129° |
| 2026-04-18 04:27 | 42.32902 | -70.79754 | 17207 ft | 239 kts | 148° |
| 2026-04-18 04:27 | 42.31278 | -70.78801 | 17671 ft | 265 kts | 155° |
| 2026-04-18 04:27 | 42.29564 | -70.77938 | 18762 ft | 255 kts | 156° |
| 2026-04-18 04:28 | 42.27959 | -70.77094 | 19633 ft | 257 kts | 154° |
| 2026-04-18 04:28 | 42.26146 | -70.76194 | 19742 ft | 290 kts | 158° |
| 2026-04-18 04:28 | 42.24250 | -70.75298 | 20646 ft | 280 kts | 158° |
| 2026-04-18 04:28 | 42.22504 | -70.74432 | 22009 ft | 256 kts | 156° |
| 2026-04-18 04:29 | 42.20852 | -70.73601 | 22890 ft | 257 kts | 157° |
| 2026-04-18 04:29 | 42.19101 | -70.72742 | 22990 ft | 288 kts | 159° |
| 2026-04-18 04:29 | 42.17084 | -70.71866 | 22925 ft | 318 kts | 161° |
| 2026-04-18 04:29 | 42.14965 | -70.70946 | 23641 ft | 314 kts | 160° |
| 2026-04-18 04:30 | 42.12894 | -70.70009 | 24462 ft | 319 kts | 159° |
| 2026-04-18 04:30 | 42.10668 | -70.69046 | 24565 ft | 357 kts | 161° |
| 2026-04-18 04:30 | 42.08148 | -70.68020 | 24533 ft | 396 kts | 162° |
| 2026-04-18 04:30 | 42.05483 | -70.66934 | 25475 ft | 395 kts | 162° |
| 2026-04-18 04:31 | 42.02853 | -70.65863 | 25730 ft | 420 kts | 161° |
| 2026-04-18 04:31 | 41.99996 | -70.64691 | 26413 ft | 425 kts | 162° |
| 2026-04-18 04:31 | 41.97294 | -70.63596 | 28303 ft | 400 kts | 161° |
| 2026-04-18 04:31 | 41.94431 | -70.62428 | 27448 ft | 446 kts | 162° |
| 2026-04-18 04:32 | 41.91605 | -70.61280 | 29829 ft | 398 kts | 162° |
| 2026-04-18 04:32 | 41.89085 | -70.60264 | 31328 ft | 377 kts | 162° |
| 2026-04-18 04:32 | 41.86308 | -70.59128 | 30239 ft | 442 kts | 162° |
| 2026-04-18 04:32 | 41.83287 | -70.57896 | 29156 ft | 467 kts | 162° |
| 2026-04-18 04:33 | 41.79916 | -70.56529 | 25651 ft | 534 kts | 162° |
| 2026-04-18 04:33 | 41.76419 | -70.55104 | 24445 ft | 510 kts | 161° |
| 2026-04-18 04:33 | 41.73152 | -70.53756 | 23161 ft | 485 kts | 161° |
| 2026-04-18 04:33 | 41.69943 | -70.52445 | 20964 ft | 470 kts | 161° |
| 2026-04-18 04:34 | 41.66875 | -70.51204 | 17645 ft | 454 kts | 161° |
| 2026-04-18 04:34 | 41.63938 | -70.50002 | 13665 ft | 430 kts | 161° |
| 2026-04-18 04:34 | 41.61066 | -70.48828 | 9058 ft | 426 kts | 161° |
| 2026-04-18 04:34 | 41.58254 | -70.47641 | 5330 ft | 415 kts | 160° |
| 2026-04-18 04:35 | 41.55633 | -70.46680 | 3908 ft | 359 kts | 163° |
| 2026-04-18 04:35 | 41.53293 | -70.46218 | 1818 ft | 349 kts | 181° |
| 2026-04-18 04:35 | 41.51246 | -70.47211 | 2117 ft | 283 kts | 211° |
| 2026-04-18 04:35 | 41.49847 | -70.48762 | 2093 ft | 245 kts | 228° |
| 2026-04-18 04:36 | 41.48772 | -70.50471 | 2322 ft | 233 kts | 230° |
| 2026-04-18 04:36 | 41.47672 | -70.51993 | 2319 ft | 229 kts | 218° |
| 2026-04-18 04:36 | 41.46404 | -70.53242 | 2012 ft | 221 kts | 213° |
| 2026-04-18 04:36 | 41.45257 | -70.54485 | 1700 ft | 200 kts | 220° |
| 2026-04-18 04:37 | 41.44306 | -70.55587 | 1374 ft | 169 kts | 214° |
| 2026-04-18 04:37 | 41.43450 | -70.56442 | 1188 ft | 142 kts | 216° |
| 2026-04-18 04:37 | 41.42724 | -70.57243 | 1004 ft | 128 kts | 218° |
| 2026-04-18 04:37 | 41.42056 | -70.58048 | 865 ft | 128 kts | 221° |
| 2026-04-18 04:38 | 41.41376 | -70.58816 | 672 ft | 127 kts | 222° |
| 2026-04-18 04:38 | 41.40729 | -70.59573 | 408 ft | 124 kts | 220° |
| 2026-04-18 04:38 | 41.40083 | -70.60306 | 207 ft | 117 kts | 225° |
| 2026-04-18 04:38 | 41.39491 | -70.60985 | 70 ft | 104 kts | 222° |
| 2026-04-18 04:39 | 41.39095 | -70.61428 | 61 ft | 37 kts | 235° |
| 2026-04-18 04:39 | 41.39039 | -70.61497 | 60 ft | 1 kts | 129° |
| 2026-04-18 04:39 | 41.39028 | -70.61413 | 65 ft | 6 kts | 130° |
| 2026-04-18 04:39 | 41.39003 | -70.61356 | 65 ft | 7 kts | 118° |
| 2026-04-18 04:40 | 41.38975 | -70.61299 | 65 ft | 0 kts | 137° |